Jordan, New York
Current Conditions -  °F | °C
As of 10:54 AM on Friday 19 Dec 2014 (Local Time) from KSYR Reporting Station
Light Snow Light Snow  
Wind Chill: 17°   Ceiling: 1600
Heat Index: 25°   Visibility: 9mi
Dew Point: 20°   Wind: 7mph
Humidity: 81%   Direction: 310°NW
Pressure: 30.15"   Gusts: NA
Location:  43.07°N, 76.47°W
Report Text: KSYR 191554Z 31006KT 9SM -SN OVC016 M04/M07 A3015 RMK AO2 SNE08B33 SLP210 P0000 T10391067
Loading
Personal Weather Stations






























Interactive Weather Map New forecast layout! Learn more

10-Day Weather Forecast

Advertisements
Track Severe Weather on mobile